KCLL/CLL METAR and TAF weather

Enter ICAO airport designator
Station Type Date Time Source
KCLL METAR 2021/09/25 02:53 UTC NOAA

KCLL 250253Z AUTO 16004KT 10SM CLR 23/11 A3005 RMK AO2 SLP171 T02280106 53010


Station Type Date Time Source
KCLL Decoded METAR 2021/09/25 02:53 UTC NOAA

COLLEGE STN EASTERWOOD FIELD, TX, United States (KCLL) 30-35N 096-22W 96M
Sep 24, 2021 - 10:53 PM EDT / 2021.09.25 0253 UTC
Wind: from the SSE (160 degrees) at 5 MPH (4 KT):0
Visibility: 10 mile(s):0
Sky conditions: clear
Temperature: 73.0 F (22.8 C)
Dew Point: 51.1 F (10.6 C)
Relative Humidity: 46%
Pressure (altimeter): 30.05 in. Hg (1017 hPa)
Pressure tendency: 0.03 inches (1.0 hPa) higher than three hours ago
ob: KCLL 250253Z AUTO 16004KT 10SM CLR 23/11 A3005 RMK AO2 SLP171 T02280106 53010
cycle: 3

Station Type Date Time Source
KCLL TAF 2021/09/24 18:34 UTC NOAA

TAF KCLL 241732Z 2418/2518 13005KT P6SM SKC
FM250100 VRB04KT P6SM SKC

Example: see airport list